Time;durP1;ratioP1;P1;durP2;ratioP2;P2;SDS_P1;SDS_P2;PMS_P1;PMS_P2;Temp;Humidity;BMP_temperature;BMP_pressure;BME280_temperature;BME280_humidity;BME280_pressure;Samples;Min_cycle;Max_cycle;Signal;HPM_P1;HPM_P2
2021/03/02 00:02:16;;;;;;;12.30;9.95;;;;;;;7.46;59.49;103322.97;1739677;82;21125;-48
2021/03/02 00:04:45;;;;;;;11.97;9.63;;;;;;;7.46;59.48;103317.34;1738126;82;21156;-48
2021/03/02 00:07:14;;;;;;;9.73;8.73;;;;;;;7.47;59.31;103319.53;1738667;82;21152;-49
2021/03/02 00:09:43;;;;;;;10.75;9.68;;;;;;;7.47;59.40;103318.23;1737047;82;21137;-49
2021/03/02 00:12:13;;;;;;;11.28;8.80;;;;;;;7.46;59.40;103309.58;1732724;82;21616;-48
2021/03/02 00:14:41;;;;;;;10.40;9.25;;;;;;;7.46;59.52;103306.98;1712875;82;21582;-48
2021/03/02 00:17:30;;;;;;;9.80;8.80;;;;;;;7.50;59.46;103311.43;1732073;82;21209;-48
2021/03/02 00:20:12;;;;;;;9.33;8.18;;;;;;;7.53;59.24;103306.36;1742580;81;21183;-50
2021/03/02 00:23:02;;;;;;;;;;;;;;;7.53;59.18;103303.77;1735653;82;21131;-49
2021/03/02 00:25:40;;;;;;;9.08;7.95;;;;;;;7.54;59.18;103300.36;1731775;81;20486;-49
2021/03/02 00:28:09;;;;;;;10.53;9.45;;;;;;;7.53;59.30;103301.59;1719818;82;21196;-49
2021/03/02 00:30:39;;;;;;;9.55;8.18;;;;;;;7.54;59.20;103297.77;1728970;82;21149;-49
2021/03/02 00:33:08;;;;;;;9.43;8.20;;;;;;;7.57;59.18;103298.25;1722281;82;21167;-49
2021/03/02 00:35:37;;;;;;;9.08;8.15;;;;;;;7.62;59.09;103293.70;1707768;82;21585;-49
2021/03/02 00:38:06;;;;;;;11.10;10.00;;;;;;;7.64;59.20;103289.84;1724948;82;21338;-49
2021/03/02 00:40:34;;;;;;;10.18;8.38;;;;;;;7.63;59.22;103286.38;1724127;82;21840;-49
2021/03/02 00:43:02;;;;;;;9.53;8.53;;;;;;;7.61;59.35;103287.15;1726600;81;21153;-49
2021/03/02 00:45:31;;;;;;;10.18;8.38;;;;;;;7.61;59.16;103280.67;1726635;82;21593;-49
2021/03/02 00:48:00;;;;;;;10.18;8.88;;;;;;;7.61;59.23;103277.67;1720286;82;21310;-49
2021/03/02 00:50:29;;;;;;;9.33;8.38;;;;;;;7.59;59.14;103275.45;1730822;82;21177;-49
2021/03/02 00:52:58;;;;;;;10.18;8.90;;;;;;;7.62;59.24;103275.56;1718382;82;21145;-49
2021/03/02 00:55:28;;;;;;;9.88;8.60;;;;;;;7.63;59.13;103278.59;1729645;82;21601;-49
2021/03/02 00:57:57;;;;;;;8.23;7.30;;;;;;;7.62;59.18;103270.37;1722175;82;21291;-49
2021/03/02 01:00:27;;;;;;;10.82;9.03;;;;;;;7.65;59.04;103271.75;1721915;82;21181;-49
2021/03/02 01:02:57;;;;;;;9.30;8.28;;;;;;;7.67;59.04;103268.78;1723204;82;21169;-49
2021/03/02 01:05:27;;;;;;;10.38;8.15;;;;;;;7.68;58.98;103262.78;1720818;82;21189;-49
2021/03/02 01:07:56;;;;;;;10.95;8.55;;;;;;;7.72;58.96;103270.22;1721060;82;21153;-49
2021/03/02 01:10:27;;;;;;;9.90;8.90;;;;;;;7.75;58.65;103271.19;1715665;82;21141;-49
2021/03/02 01:12:57;;;;;;;10.48;8.70;;;;;;;7.77;58.53;103263.48;1720920;82;21164;-49
2021/03/02 01:15:25;;;;;;;10.82;8.88;;;;;;;7.74;58.63;103266.85;1724945;82;21176;-49
2021/03/02 01:17:53;;;;;;;10.25;9.08;;;;;;;7.75;58.71;103269.89;1724050;82;21161;-50
2021/03/02 01:20:21;;;;;;;9.50;8.30;;;;;;;7.74;58.78;103275.92;1726583;82;21137;-49
2021/03/02 01:22:51;;;;;;;9.23;7.97;;;;;;;7.74;58.64;103270.73;1727348;82;21153;-49
2021/03/02 01:25:21;;;;;;;9.10;8.20;;;;;;;7.74;58.66;103264.27;1720093;82;21164;-49
2021/03/02 01:27:50;;;;;;;11.12;9.88;;;;;;;7.75;58.64;103269.89;1730830;82;21134;-49
2021/03/02 01:30:21;;;;;;;10.00;9.00;;;;;;;7.73;58.60;103267.67;1718181;82;21715;-49
2021/03/02 01:32:49;;;;;;;10.32;9.23;;;;;;;7.72;58.60;103267.22;1724485;81;21157;-49
2021/03/02 01:35:18;;;;;;;11.00;9.25;;;;;;;7.71;58.74;103270.63;1725390;82;21767;-50
2021/03/02 01:37:48;;;;;;;11.33;9.18;;;;;;;7.72;58.77;103268.52;1724063;82;21146;-50
2021/03/02 01:40:17;;;;;;;10.90;9.80;;;;;;;7.73;58.85;103266.38;1726637;82;21180;-49
2021/03/02 01:42:47;;;;;;;11.33;9.83;;;;;;;7.72;58.79;103264.63;1721762;82;21177;-49
2021/03/02 01:45:17;;;;;;;10.98;9.88;;;;;;;7.71;58.71;103257.67;1729521;82;21545;-49
2021/03/02 01:47:50;;;;;;;11.12;9.80;;;;;;;7.71;58.87;103257.67;1718610;82;21595;-49
2021/03/02 01:50:20;;;;;;;10.70;9.60;;;;;;;7.73;58.94;103257.30;1724750;82;21133;-49
2021/03/02 01:52:51;;;;;;;13.62;10.80;;;;;;;7.72;59.09;103254.27;1720073;81;21125;-49
2021/03/02 01:55:19;;;;;;;11.10;9.85;;;;;;;7.72;59.04;103252.97;1727751;82;21149;-49
2021/03/02 01:57:48;;;;;;;11.12;9.93;;;;;;;7.73;58.91;103253.86;1724164;82;21189;-49
2021/03/02 02:00:22;;;;;;;12.68;10.30;;;;;;;7.72;58.90;103256.86;1722679;82;21335;-49
2021/03/02 02:03:27;;;;;;;12.25;10.63;;;;;;;7.74;58.69;103256.48;1727286;82;21157;-49
2021/03/02 02:06:19;;;;;;;11.55;10.15;;;;;;;7.74;58.79;103255.19;1726473;82;21628;-49
2021/03/02 02:09:04;;;;;;;12.50;10.68;;;;;;;7.76;58.82;103254.81;1716156;83;21601;-49
2021/03/02 02:11:57;;;;;;;10.88;9.55;;;;;;;7.80;58.51;103247.59;1709248;83;21156;-49
2021/03/02 02:15:01;;;;;;;12.82;10.82;;;;;;;7.80;58.41;103248.00;1711769;83;21224;-49
2021/03/02 02:17:40;;;;;;;12.47;9.98;;;;;;;7.79;58.43;103253.59;1707659;82;21313;-50
2021/03/02 02:20:26;;;;;;;11.90;10.10;;;;;;;7.74;58.53;103250.01;1805556;78;22203;-48
2021/03/02 02:23:10;;;;;;;11.00;9.80;;;;;;;7.62;58.63;103250.95;1757928;80;21176;-49
2021/03/02 02:26:06;;;;;;;11.65;10.10;;;;;;;7.59;58.80;103249.55;1778155;80;21144;-48
2021/03/02 02:28:36;;;;;;;11.83;10.32;;;;;;;7.64;58.63;103250.58;1726892;83;21151;-49
2021/03/02 02:31:04;;;;;;;13.65;10.00;;;;;;;7.46;58.88;103251.29;1725057;83;21174;-48
2021/03/02 02:33:36;;;;;;;11.73;10.32;;;;;;;7.43;58.91;103253.80;1720529;83;21154;-49
2021/03/02 02:36:08;;;;;;;13.03;10.23;;;;;;;7.43;59.11;103248.62;1725433;83;21175;-48
2021/03/02 02:38:38;;;;;;;13.57;10.70;;;;;;;7.45;59.06;103252.14;1702870;83;21201;-48
2021/03/02 02:41:06;;;;;;;14.25;10.40;;;;;;;7.46;59.18;103252.58;1721926;83;21604;-48
2021/03/02 02:43:35;;;;;;;11.38;10.15;;;;;;;7.45;59.35;103255.13;1716073;83;21142;-48
2021/03/02 02:46:03;;;;;;;10.38;9.25;;;;;;;7.49;59.21;103252.69;1718130;83;21218;-48
2021/03/02 02:48:32;;;;;;;12.20;10.18;;;;;;;7.52;59.07;103254.09;1731062;83;21316;-48
2021/03/02 02:51:00;;;;;;;12.35;9.83;;;;;;;7.52;58.79;103252.80;1726550;83;21350;-48
2021/03/02 02:53:32;;;;;;;11.05;9.95;;;;;;;7.48;58.69;103245.73;1744027;81;21645;-48
2021/03/02 02:56:02;;;;;;;11.88;8.68;;;;;;;7.48;58.73;103252.21;1725673;83;21587;-50
2021/03/02 02:58:46;;;;;;;12.13;9.48;;;;;;;7.50;58.67;103251.84;1728169;83;21214;-49
2021/03/02 03:01:15;;;;;;;11.33;10.08;;;;;;;7.55;58.58;103245.52;1641318;86;21381;-49
2021/03/02 03:03:46;;;;;;;12.07;9.95;;;;;;;7.53;58.42;103253.25;1688939;83;21146;-50
2021/03/02 03:06:18;;;;;;;11.70;10.00;;;;;;;7.53;58.46;103261.02;1688915;83;21278;-49
2021/03/02 03:08:51;;;;;;;11.30;9.55;;;;;;;7.53;58.38;103253.66;1689180;83;21203;-49
2021/03/02 03:11:23;;;;;;;9.78;8.73;;;;;;;7.53;58.46;103255.84;1686775;83;21201;-49
2021/03/02 03:13:51;;;;;;;9.27;8.33;;;;;;;7.53;58.39;103257.13;1689317;83;21214;-49
2021/03/02 03:16:21;;;;;;;10.13;9.10;;;;;;;7.52;58.29;103251.50;1689037;83;21780;-49
2021/03/02 03:18:58;;;;;;;11.95;9.43;;;;;;;7.51;58.47;103258.80;1687959;84;21154;-49
2021/03/02 03:21:27;;;;;;;10.93;9.63;;;;;;;7.53;58.51;103259.72;1684267;84;21500;-49
2021/03/02 03:23:56;;;;;;;10.35;9.25;;;;;;;7.59;58.39;103264.20;1680493;84;21158;-49
2021/03/02 03:26:25;;;;;;;10.88;9.55;;;;;;;7.60;58.24;103257.80;1686498;84;21166;-49
2021/03/02 03:28:54;;;;;;;10.80;8.80;;;;;;;7.62;58.16;103258.72;1686413;85;21263;-49
2021/03/02 03:31:23;;;;;;;11.20;9.85;;;;;;;7.60;58.12;103254.31;1685587;84;21234;-49
2021/03/02 03:33:52;;;;;;;11.95;9.38;;;;;;;7.57;58.29;103252.50;1685691;84;21175;-49
2021/03/02 03:36:21;;;;;;;14.43;9.53;;;;;;;7.59;58.16;103253.84;1685648;84;21162;-49
2021/03/02 03:38:50;;;;;;;11.85;9.38;;;;;;;7.59;57.98;103258.61;1759900;80;21164;-50
2021/03/02 03:41:18;;;;;;;11.60;9.98;;;;;;;7.54;57.95;103256.31;1747606;82;21177;-49
2021/03/02 03:43:47;;;;;;;12.15;9.90;;;;;;;7.48;58.01;103252.66;1777143;80;21160;-49
2021/03/02 03:46:16;;;;;;;9.63;8.63;;;;;;;7.46;58.17;103253.87;1777051;80;21553;-49
2021/03/02 03:48:45;;;;;;;9.20;8.10;;;;;;;7.45;58.20;103250.84;1782080;80;21303;-49
2021/03/02 03:51:15;;;;;;;9.68;8.40;;;;;;;7.48;57.89;103251.36;1745163;82;21156;-50
2021/03/02 03:53:43;;;;;;;11.08;9.53;;;;;;;7.48;57.81;103252.66;1775638;80;21132;-51
2021/03/02 03:56:12;;;;;;;9.38;8.08;;;;;;;7.51;57.83;103250.14;1772162;80;21357;-49
2021/03/02 03:58:41;;;;;;;10.70;9.55;;;;;;;7.55;57.84;103254.17;1733420;82;21183;-49
2021/03/02 04:01:09;;;;;;;10.88;9.10;;;;;;;7.55;57.68;103249.40;1735527;82;21214;-50
2021/03/02 04:03:38;;;;;;;11.38;8.58;;;;;;;7.53;57.71;103246.77;1769637;80;21302;-49
2021/03/02 04:06:07;;;;;;;11.28;9.53;;;;;;;7.61;57.72;103253.06;1745329;82;21144;-49
2021/03/02 04:08:36;;;;;;;9.98;8.88;;;;;;;7.63;57.78;103251.39;1736769;82;21176;-49
2021/03/02 04:11:04;;;;;;;9.98;8.43;;;;;;;7.72;57.68;103250.37;1759196;80;21143;-49
2021/03/02 04:13:33;;;;;;;9.35;8.45;;;;;;;7.76;57.38;103249.64;1788702;80;21207;-49
2021/03/02 04:16:01;;;;;;;11.33;9.73;;;;;;;7.77;57.26;103251.81;1737625;82;21613;-50
2021/03/02 04:18:30;;;;;;;11.73;9.68;;;;;;;7.76;57.21;103252.23;1734696;82;21143;-49
2021/03/02 04:20:59;;;;;;;10.68;9.55;;;;;;;7.78;57.21;103249.27;1777537;81;21172;-49
2021/03/02 04:23:28;;;;;;;16.20;12.68;;;;;;;7.80;57.12;103239.81;1765362;81;21766;-49
2021/03/02 04:25:56;;;;;;;12.35;9.58;;;;;;;7.89;56.87;103241.36;1772110;81;21291;-49
2021/03/02 04:28:25;;;;;;;12.18;9.90;;;;;;;7.92;56.58;103247.94;1777804;81;21141;-49
2021/03/02 04:30:53;;;;;;;11.50;10.23;;;;;;;7.96;56.56;103245.89;1755835;81;21298;-49
2021/03/02 04:33:22;;;;;;;11.57;10.38;;;;;;;7.99;56.55;103247.30;1709322;83;21167;-49
2021/03/02 04:35:50;;;;;;;11.15;9.90;;;;;;;8.03;56.56;103249.14;1773708;80;21580;-49
2021/03/02 04:38:19;;;;;;;12.85;11.28;;;;;;;7.98;56.52;103257.19;1767342;81;21636;-49
2021/03/02 04:40:47;;;;;;;11.03;9.48;;;;;;;7.95;56.68;103250.64;1769524;81;21150;-49
2021/03/02 04:43:15;;;;;;;11.20;9.80;;;;;;;7.90;56.71;103253.50;1734743;82;21158;-50
2021/03/02 04:45:46;;;;;;;10.70;9.60;;;;;;;7.88;56.73;103251.69;1773305;80;21152;-50
2021/03/02 04:48:14;;;;;;;11.18;9.10;;;;;;;7.88;56.77;103256.47;1725459;82;21156;-50
2021/03/02 04:50:44;;;;;;;10.78;9.68;;;;;;;7.87;56.88;103259.88;1723223;82;21198;-49
2021/03/02 04:53:13;;;;;;;11.22;9.43;;;;;;;7.85;56.89;103256.36;1769403;80;21161;-49
2021/03/02 04:55:42;;;;;;;11.80;10.00;;;;;;;7.88;56.89;103259.05;1764828;81;21324;-49
2021/03/02 04:58:11;;;;;;;10.85;9.75;;;;;;;7.89;56.86;103265.98;1709160;84;21171;-49
2021/03/02 05:00:40;;;;;;;13.18;10.35;;;;;;;7.87;56.99;103266.36;1764587;80;21147;-49
2021/03/02 05:03:09;;;;;;;11.95;10.03;;;;;;;7.88;57.05;103261.65;1708992;84;21180;-49
2021/03/02 05:05:38;;;;;;;11.15;9.88;;;;;;;7.89;57.00;103263.39;1771594;81;21153;-49
2021/03/02 05:08:07;;;;;;;11.80;10.50;;;;;;;7.89;56.84;103260.80;1730175;82;21750;-49
2021/03/02 05:10:36;;;;;;;12.58;10.60;;;;;;;7.95;56.79;103264.89;1757584;81;21318;-49
2021/03/02 05:13:05;;;;;;;12.28;10.38;;;;;;;8.00;56.70;103259.41;1778365;81;21283;-49
2021/03/02 05:15:33;;;;;;;12.37;10.05;;;;;;;8.01;56.77;103261.59;1769926;81;21318;-49
2021/03/02 05:18:02;;;;;;;14.63;10.13;;;;;;;8.03;56.77;103268.58;1703117;84;21155;-50
2021/03/02 05:20:31;;;;;;;11.05;9.88;;;;;;;8.04;56.70;103261.25;1764699;81;21149;-49
2021/03/02 05:23:00;;;;;;;11.30;10.10;;;;;;;8.07;56.65;103266.53;1730702;82;21183;-50
2021/03/02 05:25:30;;;;;;;12.00;10.13;;;;;;;8.13;56.25;103271.89;1769849;81;21188;-49
2021/03/02 05:27:59;;;;;;;10.53;9.43;;;;;;;8.19;55.96;103271.17;1770203;81;21140;-49
2021/03/02 05:30:28;;;;;;;12.70;10.13;;;;;;;8.18;55.87;103271.58;1722230;82;21708;-49
2021/03/02 05:32:56;;;;;;;11.48;10.30;;;;;;;8.17;55.87;103273.73;1768399;81;21141;-49
2021/03/02 05:35:25;;;;;;;10.43;9.30;;;;;;;8.23;55.90;103275.61;1771487;81;21699;-49
2021/03/02 05:37:54;;;;;;;9.53;8.33;;;;;;;8.27;55.96;103274.00;1735226;82;21184;-49
2021/03/02 05:40:22;;;;;;;11.05;8.63;;;;;;;8.33;55.88;103272.46;1778685;81;21140;-49
2021/03/02 05:42:50;;;;;;;9.68;8.18;;;;;;;8.39;55.66;103274.37;1763920;81;21335;-49
2021/03/02 05:45:19;;;;;;;12.58;8.23;;;;;;;8.39;55.51;103275.22;1740086;82;21165;-49
2021/03/02 05:47:49;;;;;;;10.28;8.78;;;;;;;8.39;55.26;103275.22;1750183;81;21165;-49
2021/03/02 05:50:18;;;;;;;14.43;7.87;;;;;;;8.41;54.90;103273.98;1763731;81;21782;-49
2021/03/02 05:52:47;;;;;;;9.18;7.75;;;;;;;8.44;54.18;103270.16;1728110;82;21118;-50
2021/03/02 05:55:15;;;;;;;9.23;7.03;;;;;;;8.42;53.75;103269.24;1769715;81;21177;-49
2021/03/02 05:57:44;;;;;;;9.78;8.20;;;;;;;8.41;53.38;103268.36;1727814;82;21138;-49
2021/03/02 06:00:14;;;;;;;8.43;6.95;;;;;;;8.42;53.00;103269.24;1727085;82;21157;-49
2021/03/02 06:02:43;;;;;;;8.73;7.08;;;;;;;8.42;52.81;103275.32;1735036;82;21141;-49
2021/03/02 06:05:14;;;;;;;7.55;6.85;;;;;;;8.47;52.71;103270.27;1768379;81;21304;-50
2021/03/02 06:07:42;;;;;;;7.50;6.67;;;;;;;8.56;52.58;103273.08;1766782;81;21148;-49
2021/03/02 06:10:12;;;;;;;7.40;6.55;;;;;;;8.64;52.37;103274.16;1765053;81;21487;-49
2021/03/02 06:12:53;;;;;;;8.38;7.25;;;;;;;8.65;52.38;103272.03;1770120;80;21121;-49
2021/03/02 06:15:25;;;;;;;9.33;6.20;;;;;;;8.64;52.36;103272.86;1724590;82;21175;-49
2021/03/02 06:18:18;;;;;;;;;;;;;;;8.65;51.86;103270.73;1773693;81;21570;-49
2021/03/02 06:20:47;;;;;;;7.12;6.30;;;;;;;8.64;51.52;103269.84;1763151;80;20171;-49
2021/03/02 06:23:28;;;;;;;12.25;6.85;;;;;;;8.61;51.38;103268.48;1772520;80;21584;-50
2021/03/02 06:26:00;;;;;;;16.37;6.92;;;;;;;8.60;51.27;103262.82;1786670;80;21286;-50
2021/03/02 06:30:15;;;;;;;7.75;6.95;;;;;;;7.89;53.38;103267.28;1815992;77;26053;-46
2021/03/02 06:35:38;;;;;;;9.30;6.85;;;;;;;8.61;51.30;103262.00;1761828;79;23437;-46
2021/03/02 06:38:06;;;;;;;8.38;6.55;;;;;;;8.62;51.26;103259.84;1736755;81;21556;-46
2021/03/02 06:40:46;;;;;;;7.58;6.72;;;;;;;8.68;50.89;103257.41;1738018;82;21144;-46
2021/03/02 06:43:36;;;;;;;8.25;5.45;;;;;;;8.73;50.70;103251.05;1687317;83;21195;-46
2021/03/02 06:46:07;;;;;;;6.70;5.00;;;;;;;8.77;49.80;103254.17;1641514;85;21257;-46
2021/03/02 06:48:56;;;;;;;4.70;4.30;;;;;;;8.82;48.88;103249.55;1807681;79;22245;-46
2021/03/02 06:51:29;;;;;;;5.12;4.45;;;;;;;8.79;48.69;103251.20;1775349;80;21571;-46
2021/03/02 06:57:03;;;;;;;5.75;4.00;;;;;;;8.83;46.24;103250.43;1765715;79;23558;-46
2021/03/02 06:59:32;;;;;;;6.30;4.72;;;;;;;8.78;46.16;103246.83;1740376;82;21141;-46
2021/03/02 07:02:00;;;;;;;8.28;5.78;;;;;;;8.80;46.52;103254.23;1727260;82;21200;-46
2021/03/02 07:04:30;;;;;;;13.45;10.25;;;;;;;8.83;46.71;103246.53;1735750;82;21278;-46
2021/03/02 07:07:00;;;;;;;8.40;7.60;;;;;;;8.86;46.46;103247.92;1737670;82;21310;-47
2021/03/02 07:09:30;;;;;;;5.65;4.92;;;;;;;8.87;46.46;103251.84;1740716;82;21537;-46
2021/03/02 07:11:59;;;;;;;8.53;6.90;;;;;;;8.94;45.95;103248.98;1741123;82;21725;-46
2021/03/02 07:14:27;;;;;;;39.03;30.92;;;;;;;8.95;45.96;103241.64;1735764;82;21155;-46
2021/03/02 07:16:56;;;;;;;44.77;33.90;;;;;;;8.94;45.77;103245.09;1738469;82;21164;-46
2021/03/02 07:19:25;;;;;;;50.65;38.92;;;;;;;8.92;45.78;103242.44;1737644;82;21184;-46
2021/03/02 07:21:55;;;;;;;28.40;22.37;;;;;;;8.95;45.67;103239.04;1737807;82;21160;-46
2021/03/02 07:24:26;;;;;;;36.58;26.52;;;;;;;8.97;45.63;103238.66;1739178;82;21176;-47
2021/03/02 07:26:57;;;;;;;27.75;19.32;;;;;;;8.99;45.33;103236.98;1658950;85;21198;-46
2021/03/02 07:29:25;;;;;;;17.50;13.22;;;;;;;9.01;44.98;103235.30;1670429;86;21241;-46
2021/03/02 07:31:53;;;;;;;12.75;10.05;;;;;;;9.02;44.79;103224.08;1664475;86;21622;-46
2021/03/02 07:34:22;;;;;;;23.10;17.02;;;;;;;9.05;44.60;103223.28;1670343;86;21212;-47
2021/03/02 07:36:51;;;;;;;27.80;20.32;;;;;;;9.08;44.72;103216.43;1658343;86;21180;-46
2021/03/02 07:39:25;;;;;;;34.08;27.27;;;;;;;9.13;44.90;103217.39;1670581;86;21667;-46
2021/03/02 07:41:54;;;;;;;13.70;11.85;;;;;;;9.17;44.52;103216.63;1664717;86;22669;-47
2021/03/02 07:44:22;;;;;;;8.53;7.15;;;;;;;9.22;44.11;103220.22;1670639;86;21321;-46
2021/03/02 07:46:53;;;;;;;6.37;5.78;;;;;;;9.25;43.60;103219.00;1670400;86;21267;-46
2021/03/02 07:49:28;;;;;;;16.32;12.50;;;;;;;9.29;43.02;103212.15;1670653;86;21244;-47
2021/03/02 07:52:12;;;;;;;19.00;15.32;;;;;;;9.30;43.10;103206.97;1670373;86;21204;-46
2021/03/02 07:54:41;;;;;;;27.55;21.45;;;;;;;9.31;43.47;103207.45;1670340;85;21157;-46
2021/03/02 07:57:22;;;;;;;40.73;29.75;;;;;;;9.31;43.31;103207.45;1670239;86;21326;-47
2021/03/02 08:00:18;;;;;;;41.10;29.20;;;;;;;9.33;43.37;103207.47;1670350;86;21203;-47
2021/03/02 08:03:29;;;;;;;36.28;25.02;;;;;;;9.39;43.46;103203.30;1801981;79;23479;-46
2021/03/02 08:06:23;;;;;;;22.62;15.38;;;;;;;9.39;43.67;103205.89;1774139;80;21175;-46
2021/03/02 08:08:52;;;;;;;14.10;10.75;;;;;;;9.43;43.80;103202.52;1678410;85;21318;-47
2021/03/02 08:11:35;;;;;;;15.95;10.08;;;;;;;9.47;43.75;103202.15;1685311;85;21385;-47
2021/03/02 08:14:24;;;;;;;19.40;14.10;;;;;;;9.37;44.15;103198.48;1681819;85;21362;-47
2021/03/02 08:17:05;;;;;;;13.68;11.08;;;;;;;9.52;44.09;103198.80;1683334;85;21204;-46
2021/03/02 08:19:44;;;;;;;10.30;8.23;;;;;;;9.57;43.54;103198.48;1685541;85;21384;-47
2021/03/02 08:22:26;;;;;;;9.73;8.10;;;;;;;9.60;43.41;103192.48;1685345;85;21612;-47
2021/03/02 08:25:04;;;;;;;9.15;7.67;;;;;;;9.61;43.65;103196.41;1685362;85;21196;-47
2021/03/02 08:27:49;;;;;;;8.00;7.20;;;;;;;9.68;43.79;103190.50;1817456;79;23060;-46
2021/03/02 08:30:36;;;;;;;8.98;5.40;;;;;;;9.67;43.72;103193.93;1733555;82;21564;-47
2021/03/02 08:33:10;;;;;;;8.33;7.28;;;;;;;9.70;43.39;103181.01;1740558;81;21169;-47
2021/03/02 08:35:41;;;;;;;8.95;6.45;;;;;;;9.69;43.28;103181.84;1720936;83;21174;-46
2021/03/02 08:38:13;;;;;;;8.58;6.42;;;;;;;9.70;43.47;103187.51;1752211;81;21181;-47
2021/03/02 08:40:45;;;;;;;6.53;5.72;;;;;;;9.69;43.34;103183.14;1716358;83;21185;-47
2021/03/02 08:43:24;;;;;;;6.67;5.97;;;;;;;9.68;43.49;103184.00;1727374;83;21621;-46
2021/03/02 08:45:55;;;;;;;9.90;7.42;;;;;;;9.68;43.68;103186.59;1714029;83;21188;-46
2021/03/02 08:48:33;;;;;;;18.87;14.58;;;;;;;9.67;43.63;103182.23;1678998;85;21638;-46
2021/03/02 08:51:08;;;;;;;15.43;13.18;;;;;;;9.67;44.05;103182.64;1682655;85;21785;-46
2021/03/02 08:53:43;;;;;;;19.87;17.75;;;;;;;9.67;44.20;103184.83;1682424;85;21645;-46
2021/03/02 08:56:19;;;;;;;73.42;55.23;;;;;;;9.66;44.02;103177.89;1682265;85;21182;-46
2021/03/02 08:58:52;;;;;;;53.63;40.45;;;;;;;9.66;44.06;103171.39;1682722;85;21215;-47
2021/03/02 09:01:28;;;;;;;34.35;27.05;;;;;;;9.70;43.94;103166.70;1771477;79;23056;-46
2021/03/02 09:04:17;;;;;;;40.03;29.55;;;;;;;9.67;43.81;103165.33;1739351;82;21152;-46
2021/03/02 09:06:49;;;;;;;40.48;30.68;;;;;;;9.68;43.73;103161.91;1739345;82;21180;-47
2021/03/02 09:09:19;;;;;;;26.45;18.25;;;;;;;9.64;44.12;103161.80;1739907;82;21179;-46
2021/03/02 09:11:56;;;;;;;22.65;18.10;;;;;;;9.63;44.32;103158.73;1735118;82;21188;-46
2021/03/02 09:14:33;;;;;;;16.10;13.32;;;;;;;9.62;44.60;103160.45;1741873;82;21136;-47
2021/03/02 09:17:02;;;;;;;11.50;8.98;;;;;;;9.62;44.81;103155.25;1734450;82;21153;-47
2021/03/02 09:19:41;;;;;;;12.37;9.90;;;;;;;9.63;44.97;103154.42;1736117;82;21160;-47
2021/03/02 09:22:21;;;;;;;9.40;6.92;;;;;;;9.65;44.97;103157.04;1734627;82;21577;-47
2021/03/02 09:24:55;;;;;;;8.35;5.90;;;;;;;9.64;45.11;103154.86;1742027;82;21139;-47
2021/03/02 09:27:32;;;;;;;4.33;3.90;;;;;;;9.66;45.16;103153.20;1737358;82;21585;-48
2021/03/02 09:30:00;;;;;;;5.22;4.30;;;;;;;9.67;44.77;103154.94;1740377;82;21699;-47
2021/03/02 09:32:30;;;;;;;5.47;4.78;;;;;;;9.69;45.03;103149.34;1741000;82;21117;-46
2021/03/02 09:37:44;;;;;;;5.22;4.72;;;;;;;9.77;45.60;103143.86;1806693;79;23054;-46
2021/03/02 09:40:14;;;;;;;7.55;6.80;;;;;;;9.74;45.88;103146.84;1780004;80;21262;-46
2021/03/02 09:42:55;;;;;;;10.03;7.10;;;;;;;9.75;45.99;103149.45;1778691;80;21195;-46
2021/03/02 09:45:24;;;;;;;10.40;5.55;;;;;;;9.75;45.76;103150.75;1779066;80;21624;-46
2021/03/02 09:48:05;;;;;;;5.08;4.50;;;;;;;9.72;45.71;103142.03;1776859;80;21565;-46
2021/03/02 09:50:39;;;;;;;5.00;4.50;;;;;;;9.73;45.71;103138.16;1740361;81;21154;-46
2021/03/02 09:53:15;;;;;;;5.95;4.50;;;;;;;9.76;46.00;103135.63;1740516;82;21151;-46
2021/03/02 09:55:47;;;;;;;9.83;4.72;;;;;;;9.84;45.73;103122.77;1736616;82;21166;-46
2021/03/02 09:58:17;;;;;;;4.17;3.77;;;;;;;9.88;45.82;103119.37;1747667;82;21242;-46
2021/03/02 10:00:49;;;;;;;12.75;7.33;;;;;;;9.85;45.80;103114.98;1737955;82;21320;-47
2021/03/02 10:03:23;;;;;;;10.50;7.30;;;;;;;9.78;45.98;103113.12;1743479;82;21131;-47
2021/03/02 10:06:00;;;;;;;11.22;7.97;;;;;;;9.88;46.00;103102.88;1743492;82;21166;-47
2021/03/02 10:08:42;;;;;;;5.97;5.37;;;;;;;9.93;46.22;103109.05;1742823;82;21229;-46
2021/03/02 10:11:16;;;;;;;10.30;5.53;;;;;;;9.96;45.92;103098.27;1739090;82;21124;-46
2021/03/02 10:13:53;;;;;;;6.17;4.58;;;;;;;10.00;45.77;103097.89;1740751;82;21607;-47
2021/03/02 10:19:20;;;;;;;4.72;3.30;;;;;;;10.04;45.65;103087.99;1717859;83;21196;-46
2021/03/02 10:21:56;;;;;;;3.30;2.72;;;;;;;10.13;44.93;103081.70;1807023;79;22261;-46
2021/03/02 10:24:36;;;;;;;2.62;2.42;;;;;;;10.16;44.66;103072.20;1773538;80;21167;-46
2021/03/02 10:27:17;;;;;;;4.15;3.10;;;;;;;10.22;44.41;103068.85;1746911;81;21184;-46
2021/03/02 10:29:51;;;;;;;3.90;2.60;;;;;;;10.33;44.73;103054.27;1813064;79;23134;-47
2021/03/02 10:32:20;;;;;;;3.17;2.87;;;;;;;10.36;44.29;103060.42;1781901;80;21132;-46
2021/03/02 10:34:50;;;;;;;3.95;2.98;;;;;;;10.48;44.17;103048.01;1780160;80;21576;-47
2021/03/02 10:37:18;;;;;;;4.05;2.72;;;;;;;10.57;43.93;103045.55;1756935;80;21148;-47
2021/03/02 10:39:47;;;;;;;2.70;2.50;;;;;;;10.62;43.86;103032.16;1762936;80;21143;-47
2021/03/02 10:42:16;;;;;;;3.67;2.70;;;;;;;10.72;44.08;103031.42;1782011;80;21280;-47
2021/03/02 10:44:45;;;;;;;7.90;4.65;;;;;;;10.77;43.98;103019.36;1779544;80;21183;-47
2021/03/02 10:47:14;;;;;;;3.42;2.70;;;;;;;10.85;43.68;103020.33;1776879;80;21113;-47
2021/03/02 10:49:42;;;;;;;2.58;2.30;;;;;;;10.94;43.11;103019.13;1777441;80;21132;-47
2021/03/02 10:52:11;;;;;;;3.40;2.45;;;;;;;11.04;42.88;103006.69;1770923;80;21143;-47
2021/03/02 10:54:40;;;;;;;4.12;3.10;;;;;;;11.06;43.20;103004.97;1789173;80;21173;-46
2021/03/02 10:57:09;;;;;;;7.47;3.17;;;;;;;11.13;43.27;102998.96;1788619;80;21174;-47
2021/03/02 10:59:37;;;;;;;6.72;3.72;;;;;;;11.19;43.16;102993.81;1788923;80;21156;-46
2021/03/02 11:02:07;;;;;;;5.87;4.15;;;;;;;11.22;43.02;102993.87;1779701;80;21120;-47
2021/03/02 11:04:35;;;;;;;4.40;3.20;;;;;;;11.28;43.21;102993.05;1777341;80;21151;-47
2021/03/02 11:07:05;;;;;;;3.95;2.80;;;;;;;11.32;42.79;102987.89;1785761;80;21638;-46
2021/03/02 11:09:33;;;;;;;6.78;4.05;;;;;;;11.32;42.76;102979.19;1745014;81;21182;-46
2021/03/02 11:12:02;;;;;;;3.72;2.72;;;;;;;11.33;43.05;102980.50;1743770;81;21710;-46
2021/03/02 11:14:31;;;;;;;3.27;2.75;;;;;;;11.34;43.13;102971.84;1713203;83;21183;-46
2021/03/02 11:17:00;;;;;;;6.35;3.62;;;;;;;11.38;43.24;102971.01;1725438;83;21174;-47
2021/03/02 11:19:28;;;;;;;2.90;2.50;;;;;;;11.40;43.33;102962.77;1709196;83;21199;-46
2021/03/02 11:21:57;;;;;;;3.98;2.70;;;;;;;11.44;43.27;102954.12;1709235;83;21128;-47
2021/03/02 11:24:25;;;;;;;4.50;3.02;;;;;;;11.55;42.97;102950.73;1706484;83;21181;-47
2021/03/02 11:26:54;;;;;;;5.05;3.08;;;;;;;11.58;42.78;102950.78;1740515;82;21157;-47
2021/03/02 11:29:22;;;;;;;5.45;3.05;;;;;;;11.54;43.04;102949.00;1707026;82;21156;-47
2021/03/02 11:31:52;;;;;;;3.00;2.47;;;;;;;11.57;43.11;102941.19;1743272;82;21153;-47
2021/03/02 11:34:22;;;;;;;4.45;3.40;;;;;;;11.56;42.84;102931.64;1744164;82;21333;-47
2021/03/02 11:36:52;;;;;;;6.67;3.83;;;;;;;11.56;42.96;102932.95;1740586;82;21629;-47
2021/03/02 11:39:20;;;;;;;5.58;3.12;;;;;;;11.57;43.07;102934.67;1740073;82;21282;-46
2021/03/02 11:41:50;;;;;;;3.92;2.35;;;;;;;11.60;43.20;102929.50;1739120;82;21157;-47
2021/03/02 11:44:18;;;;;;;5.05;2.83;;;;;;;11.61;43.13;102930.81;1739476;82;21600;-46
2021/03/02 11:46:47;;;;;;;3.80;2.72;;;;;;;11.64;43.06;102929.97;1740612;82;21188;-47
2021/03/02 11:49:15;;;;;;;3.62;2.87;;;;;;;11.69;42.79;102916.55;1740804;82;21526;-48
2021/03/02 11:51:44;;;;;;;3.42;2.58;;;;;;;11.71;42.71;102914.41;1743409;82;21145;-46
2021/03/02 11:54:13;;;;;;;3.27;2.83;;;;;;;11.67;43.09;102910.45;1743913;82;21129;-47
2021/03/02 11:56:42;;;;;;;5.85;3.37;;;;;;;11.66;42.98;102915.21;1737203;82;21712;-47
2021/03/02 11:59:10;;;;;;;5.47;2.98;;;;;;;11.63;43.13;102910.84;1738575;82;21626;-47
2021/03/02 12:01:39;;;;;;;3.60;3.00;;;;;;;11.62;43.20;102901.70;1739120;82;21585;-46
2021/03/02 12:04:08;;;;;;;3.90;3.02;;;;;;;11.62;43.41;102904.31;1738896;82;21335;-47